Time;durP1;ratioP1;P1;durP2;ratioP2;P2;SDS_P1;SDS_P2;PMS_P1;PMS_P2;Temp;Humidity;BMP_temperature;BMP_pressure;BME280_temperature;BME280_humidity;BME280_pressure;Samples;Min_cycle;Max_cycle;Signal;HPM_P1;HPM_P2
2021/11/17 02:26:22;;;;;;;97.90;33.72;;;6.10;99.90;;;;;;5112247;28;20314;-71
2021/11/17 02:29:03;;;;;;;96.75;32.10;;;6.10;99.90;;;;;;5108626;28;20031;-70
2021/11/17 02:31:53;;;;;;;99.07;31.92;;;6.20;99.90;;;;;;5109901;28;20038;-70
2021/11/17 02:34:25;;;;;;;95.10;32.50;;;6.20;99.90;;;;;;5112542;28;20024;-70
2021/11/17 02:37:12;;;;;;;89.53;32.63;;;6.30;99.90;;;;;;5108669;28;20070;-70
2021/11/17 02:40:10;;;;;;;91.57;30.02;;;6.30;99.90;;;;;;5086793;28;20023;-70
2021/11/17 02:43:00;;;;;;;95.25;31.67;;;6.30;99.90;;;;;;5109288;28;20208;-71
2021/11/17 02:45:38;;;;;;;;;;;6.40;99.90;;;;;;5112231;28;20050;-70
2021/11/17 02:48:04;;;;;;;91.57;28.65;;;6.40;99.90;;;;;;5107921;28;19912;-70
2021/11/17 02:50:41;;;;;;;98.40;31.80;;;6.40;99.90;;;;;;5108706;28;20147;-70
2021/11/17 02:53:29;;;;;;;100.15;32.00;;;6.50;99.90;;;;;;5109101;28;20023;-70
2021/11/17 02:56:14;;;;;;;91.53;30.85;;;6.50;99.90;;;;;;5110139;28;20115;-70
2021/11/17 02:58:55;;;;;;;86.93;31.33;;;6.50;99.90;;;;;;5091873;28;20062;-70
2021/11/17 03:01:33;;;;;;;94.88;31.60;;;6.50;99.90;;;;;;5091923;28;20019;-70
2021/11/17 03:04:22;;;;;;;96.35;29.65;;;6.50;99.90;;;;;;5108656;28;20023;-70
2021/11/17 03:07:06;;;;;;;89.03;31.02;;;6.60;99.90;;;;;;5085296;28;20038;-70
2021/11/17 03:09:55;;;;;;;105.03;32.25;;;6.60;99.90;;;;;;5107382;28;20063;-70
2021/11/17 03:13:06;;;;;;;96.75;32.95;;;6.60;99.90;;;;;;5078112;27;20359;-71
2021/11/17 03:16:05;;;;;;;103.63;31.45;;;6.70;99.90;;;;;;5037465;28;20346;-70
2021/11/17 03:18:52;;;;;;;97.43;30.13;;;6.70;99.90;;;;;;5072721;28;20031;-70
2021/11/17 03:21:33;;;;;;;98.93;31.10;;;6.70;99.90;;;;;;5089743;28;20736;-70
2021/11/17 03:24:22;;;;;;;107.85;32.15;;;6.80;99.90;;;;;;5109505;28;20031;-70
2021/11/17 03:27:13;;;;;;;117.80;35.40;;;6.80;99.90;;;;;;5109151;28;20031;-70
2021/11/17 03:30:06;;;;;;;93.65;29.75;;;6.80;99.90;;;;;;5110104;28;20040;-70
2021/11/17 03:32:57;;;;;;;112.43;32.42;;;6.80;99.90;;;;;;5109058;28;20031;-70
2021/11/17 03:35:47;;;;;;;110.00;32.13;;;6.90;99.90;;;;;;5109638;28;20023;-70
2021/11/17 03:38:28;;;;;;;90.75;29.88;;;6.90;99.90;;;;;;5108126;28;20039;-70
2021/11/17 03:41:11;;;;;;;95.85;29.13;;;6.90;99.90;;;;;;5085847;28;20126;-70
2021/11/17 03:44:10;;;;;;;99.15;28.67;;;7.00;99.90;;;;;;5109139;28;20279;-70
2021/11/17 03:47:10;;;;;;;105.75;30.08;;;7.00;99.90;;;;;;5109629;28;20210;-70
2021/11/17 03:50:09;;;;;;;97.70;30.55;;;7.00;99.90;;;;;;5104638;28;20055;-70
2021/11/17 03:52:50;;;;;;;104.50;30.67;;;7.10;99.90;;;;;;5108758;28;20043;-70
2021/11/17 03:55:33;;;;;;;104.22;31.05;;;7.10;99.90;;;;;;5109666;28;20102;-70
2021/11/17 03:58:21;;;;;;;95.13;30.55;;;7.10;99.90;;;;;;5109981;28;20273;-70
2021/11/17 04:01:23;;;;;;;97.63;31.15;;;7.10;99.90;;;;;;5109027;28;20030;-70
2021/11/17 04:04:01;;;;;;;101.10;29.10;;;7.20;99.90;;;;;;5105666;28;20023;-71
2021/11/17 04:06:36;;;;;;;91.10;26.98;;;7.20;99.90;;;;;;5109354;28;20234;-70
2021/11/17 04:09:35;;;;;;;96.05;29.10;;;7.20;99.90;;;;;;5109615;28;20031;-70
2021/11/17 04:12:11;;;;;;;94.47;28.23;;;7.30;99.90;;;;;;5105563;28;20338;-70
2021/11/17 04:14:46;;;;;;;83.55;24.42;;;7.30;99.90;;;;;;5104896;28;20104;-71
2021/11/17 04:17:36;;;;;;;89.97;25.15;;;7.30;99.90;;;;;;5085813;28;20349;-70
2021/11/17 04:20:11;;;;;;;75.70;24.00;;;7.40;99.90;;;;;;5102987;28;20068;-71
2021/11/17 04:22:46;;;;;;;79.50;25.52;;;7.40;99.90;;;;;;5105864;28;20024;-71
2021/11/17 04:25:28;;;;;;;80.50;24.15;;;7.40;99.90;;;;;;5105203;28;20047;-71
2021/11/17 04:28:24;;;;;;;77.63;22.95;;;7.50;99.90;;;;;;5108584;28;20024;-71
2021/11/17 04:31:27;;;;;;;61.30;20.77;;;7.50;99.90;;;;;;5103741;28;20043;-71
2021/11/17 04:34:16;;;;;;;66.20;21.85;;;7.50;99.90;;;;;;5105379;28;20050;-71
2021/11/17 04:36:53;;;;;;;62.65;20.08;;;7.60;99.90;;;;;;5103315;28;20034;-71
2021/11/17 04:39:37;;;;;;;70.82;23.20;;;7.60;99.90;;;;;;5107092;28;20023;-71
2021/11/17 04:42:25;;;;;;;80.18;24.00;;;7.60;99.90;;;;;;5100550;28;20019;-71
2021/11/17 04:44:56;;;;;;;65.22;21.55;;;7.70;99.90;;;;;;5106622;28;20045;-71
2021/11/17 04:47:37;;;;;;;60.75;20.60;;;7.70;99.90;;;;;;5105334;27;20261;-71
2021/11/17 04:50:35;;;;;;;66.68;21.13;;;7.80;99.90;;;;;;5073106;28;20226;-71
2021/11/17 04:53:36;;;;;;;61.67;20.48;;;7.80;99.90;;;;;;5097072;28;20012;-68
2021/11/17 04:56:14;;;;;;;60.10;19.77;;;7.80;99.90;;;;;;5094633;28;20089;-68
2021/11/17 04:59:01;;;;;;;62.88;21.02;;;7.90;99.90;;;;;;5104896;28;20038;-68
2021/11/17 05:01:39;;;;;;;69.75;22.10;;;7.90;99.90;;;;;;5079472;28;20062;-68
2021/11/17 05:04:20;;;;;;;70.85;22.50;;;7.90;99.90;;;;;;5104862;28;20083;-69
2021/11/17 05:07:07;;;;;;;76.47;21.88;;;7.90;99.90;;;;;;5090311;28;20024;-69
2021/11/17 05:09:49;;;;;;;68.15;21.42;;;8.00;99.90;;;;;;5103222;28;20103;-68
2021/11/17 05:12:18;;;;;;;70.72;22.15;;;8.00;99.90;;;;;;5089751;28;20116;-68
2021/11/17 05:14:59;;;;;;;69.70;22.02;;;8.10;99.90;;;;;;5112005;28;20091;-68
2021/11/17 05:17:32;;;;;;;68.38;20.00;;;8.20;99.90;;;;;;5106168;28;20394;-67
2021/11/17 05:20:07;;;;;;;64.18;19.30;;;8.20;99.90;;;;;;5104310;28;20054;-67
2021/11/17 05:22:50;;;;;;;59.85;19.63;;;8.40;99.90;;;;;;5112408;28;20262;-67
2021/11/17 05:25:30;;;;;;;59.17;19.38;;;8.60;99.90;;;;;;5083562;28;20112;-67
2021/11/17 05:28:20;;;;;;;44.60;15.23;;;8.70;99.90;;;;;;5108807;27;20531;-68
2021/11/17 05:31:04;;;;;;;45.00;14.18;;;8.70;99.90;;;;;;5108338;28;20619;-68
2021/11/17 05:33:43;;;;;;;52.72;15.05;;;8.80;99.90;;;;;;5105900;28;20246;-68
2021/11/17 05:36:12;;;;;;;52.63;15.73;;;8.80;99.90;;;;;;5106063;27;20225;-68
2021/11/17 05:38:53;;;;;;;44.92;14.45;;;8.90;99.90;;;;;;5104395;28;20326;-68
2021/11/17 05:41:27;;;;;;;47.72;17.27;;;8.90;99.90;;;;;;5108839;27;20023;-68
2021/11/17 05:44:34;;;;;;;47.38;16.52;;;8.90;99.90;;;;;;5095960;27;20360;-68
2021/11/17 05:47:00;;;;;;;46.10;14.48;;;9.00;99.90;;;;;;5052665;28;20107;-69
2021/11/17 05:49:38;;;;;;;45.78;14.52;;;9.00;99.90;;;;;;5109619;28;20055;-69
2021/11/17 05:52:09;;;;;;;35.80;13.02;;;9.00;99.90;;;;;;5111579;28;20019;-69
2021/11/17 05:54:45;;;;;;;40.17;16.15;;;9.10;99.90;;;;;;5092588;28;20063;-69
2021/11/17 05:57:30;;;;;;;36.95;11.75;;;9.10;99.90;;;;;;5108820;28;20031;-69
2021/11/17 06:00:23;;;;;;;33.53;10.65;;;9.10;99.90;;;;;;5112233;28;20038;-69
2021/11/17 06:03:20;;;;;;;22.85;8.80;;;9.10;99.90;;;;;;5105547;28;20027;-69
2021/11/17 06:05:45;;;;;;;29.73;9.88;;;9.20;99.90;;;;;;5112864;28;20031;-69
2021/11/17 06:08:11;;;;;;;21.40;8.60;;;9.20;99.90;;;;;;5111371;28;20035;-69
2021/11/17 06:10:41;;;;;;;21.35;8.27;;;9.20;99.90;;;;;;5110688;28;20047;-69
2021/11/17 06:13:09;;;;;;;23.25;8.63;;;9.20;99.90;;;;;;5086854;28;20201;-69
2021/11/17 06:15:37;;;;;;;30.77;11.07;;;9.30;99.90;;;;;;5110852;28;20039;-69
2021/11/17 06:18:05;;;;;;;26.33;12.70;;;9.20;99.90;;;;;;5105583;28;20020;-69
2021/11/17 06:20:32;;;;;;;27.40;11.43;;;9.30;99.90;;;;;;5112278;28;20553;-69
2021/11/17 06:23:03;;;;;;;32.10;13.27;;;9.30;99.90;;;;;;5087510;28;20057;-69
2021/11/17 06:25:30;;;;;;;28.30;11.68;;;9.30;99.90;;;;;;5108779;28;20024;-69
2021/11/17 06:28:02;;;;;;;29.67;11.95;;;9.30;99.90;;;;;;5110784;28;20270;-69
2021/11/17 06:30:35;;;;;;;34.80;13.93;;;9.30;99.90;;;;;;5110683;28;20038;-69
2021/11/17 06:33:03;;;;;;;34.50;14.20;;;9.40;99.90;;;;;;5111514;28;20020;-70
2021/11/17 06:35:29;;;;;;;35.05;14.40;;;9.40;99.90;;;;;;5069970;28;20199;-70
2021/11/17 06:37:56;;;;;;;37.95;16.27;;;9.40;99.90;;;;;;5112044;28;20130;-70
2021/11/17 06:40:23;;;;;;;41.25;16.42;;;9.40;99.90;;;;;;5108391;28;20055;-70
2021/11/17 06:42:55;;;;;;;39.35;15.80;;;9.40;99.90;;;;;;5111757;28;20210;-70
2021/11/17 06:45:34;;;;;;;43.78;17.63;;;9.40;99.90;;;;;;5107820;28;20090;-70
2021/11/17 06:48:00;;;;;;;37.03;17.70;;;9.40;99.90;;;;;;5110897;28;20026;-70
2021/11/17 06:50:26;;;;;;;41.72;17.63;;;9.40;99.90;;;;;;5109922;28;20031;-69
2021/11/17 06:52:52;;;;;;;43.30;18.63;;;9.50;99.90;;;;;;5108641;28;20047;-69
2021/11/17 06:55:19;;;;;;;45.53;18.67;;;9.50;99.90;;;;;;5108693;28;20031;-69
2021/11/17 06:57:45;;;;;;;47.38;18.40;;;9.60;99.90;;;;;;5111445;28;20086;-69
2021/11/17 07:00:18;;;;;;;45.70;19.40;;;9.60;99.90;;;;;;5107158;28;20028;-69
2021/11/17 07:02:44;;;;;;;52.60;19.95;;;9.60;99.90;;;;;;5109178;28;20024;-69
2021/11/17 07:05:11;;;;;;;46.38;20.45;;;9.60;99.90;;;;;;5111269;28;20341;-69
2021/11/17 07:07:37;;;;;;;53.80;20.33;;;9.60;99.90;;;;;;5109972;28;20353;-69
2021/11/17 07:10:07;;;;;;;53.92;21.88;;;9.60;99.90;;;;;;5110045;28;20079;-69
2021/11/17 07:12:32;;;;;;;52.38;20.45;;;9.60;99.90;;;;;;5088298;28;20027;-69
2021/11/17 07:14:58;;;;;;;46.58;19.70;;;9.60;99.90;;;;;;5109620;28;20326;-70
2021/11/17 07:17:24;;;;;;;44.35;18.75;;;9.70;99.90;;;;;;5107583;28;20362;-70
2021/11/17 07:19:50;;;;;;;51.17;17.80;;;9.70;99.90;;;;;;5111309;28;20226;-70
2021/11/17 07:22:16;;;;;;;27.55;11.60;;;9.70;99.90;;;;;;5111116;28;20028;-69
2021/11/17 07:24:42;;;;;;;34.63;12.25;;;9.70;99.90;;;;;;5109499;28;20027;-69
2021/11/17 07:27:18;;;;;;;24.35;10.20;;;9.70;99.90;;;;;;5111036;28;20320;-70
2021/11/17 07:29:45;;;;;;;21.02;8.77;;;9.80;99.90;;;;;;5111439;28;20058;-69
2021/11/17 07:32:11;;;;;;;15.48;6.97;;;9.80;99.90;;;;;;5107371;28;20030;-69
2021/11/17 07:34:37;;;;;;;13.60;7.38;;;9.80;99.90;;;;;;5108055;28;20028;-69
2021/11/17 07:37:03;;;;;;;17.58;8.45;;;9.90;99.90;;;;;;5107631;28;20029;-69
2021/11/17 07:39:29;;;;;;;16.80;6.68;;;9.90;99.90;;;;;;5109732;28;20382;-69
2021/11/17 07:41:55;;;;;;;10.88;5.15;;;9.90;99.90;;;;;;5107300;28;20064;-70
2021/11/17 07:44:22;;;;;;;10.95;5.43;;;10.00;99.90;;;;;;5111528;28;20061;-70
2021/11/17 07:46:53;;;;;;;13.73;5.30;;;10.00;99.90;;;;;;5108724;28;20102;-70
2021/11/17 07:49:21;;;;;;;10.98;3.80;;;10.00;99.90;;;;;;5108153;28;20043;-70
2021/11/17 07:51:47;;;;;;;12.27;3.58;;;10.00;99.90;;;;;;5111338;28;20047;-70
2021/11/17 07:54:14;;;;;;;10.60;3.30;;;10.00;99.90;;;;;;5110151;28;20071;-70
2021/11/17 07:56:42;;;;;;;7.25;3.20;;;10.00;99.90;;;;;;5110143;28;20023;-70
2021/11/17 07:59:11;;;;;;;7.28;2.78;;;9.90;99.90;;;;;;5112598;28;20027;-70
2021/11/17 08:01:37;;;;;;;6.05;2.65;;;9.90;99.90;;;;;;5110187;28;20100;-70
2021/11/17 08:04:04;;;;;;;9.32;2.50;;;10.00;99.90;;;;;;5109844;28;20055;-70
2021/11/17 08:06:30;;;;;;;7.20;1.90;;;10.00;99.90;;;;;;5111923;28;20023;-70
2021/11/17 08:08:57;;;;;;;7.95;1.92;;;10.00;99.90;;;;;;5108418;28;20193;-69
2021/11/17 08:11:24;;;;;;;8.23;2.00;;;10.00;99.90;;;;;;5108202;28;20054;-70
2021/11/17 08:13:50;;;;;;;8.63;2.08;;;10.00;99.90;;;;;;5109696;28;20039;-70
2021/11/17 08:16:17;;;;;;;8.35;1.77;;;10.10;99.90;;;;;;5109825;28;20034;-70
2021/11/17 08:18:44;;;;;;;5.15;1.52;;;10.10;99.90;;;;;;5108558;28;20031;-70
2021/11/17 08:21:12;;;;;;;7.80;1.83;;;10.10;99.90;;;;;;5092754;28;20379;-70
2021/11/17 08:23:38;;;;;;;7.13;2.15;;;10.10;99.90;;;;;;5115570;28;20054;-70
2021/11/17 08:26:06;;;;;;;5.78;1.65;;;10.10;99.90;;;;;;5108504;28;20191;-70
2021/11/17 08:28:32;;;;;;;9.05;2.25;;;10.10;99.90;;;;;;5115356;28;20077;-70
2021/11/17 08:30:58;;;;;;;12.20;1.77;;;10.10;99.90;;;;;;5113005;28;20647;-70
2021/11/17 08:33:24;;;;;;;4.07;1.58;;;10.10;99.90;;;;;;5116092;28;20303;-70
2021/11/17 08:35:50;;;;;;;6.68;1.63;;;10.10;99.90;;;;;;5110243;28;20030;-70
2021/11/17 08:38:20;;;;;;;7.32;1.92;;;10.10;99.90;;;;;;5113954;28;20031;-70
2021/11/17 08:40:50;;;;;;;6.13;1.77;;;10.10;99.90;;;;;;5110769;28;20035;-70
2021/11/17 08:43:17;;;;;;;7.47;2.50;;;10.10;99.90;;;;;;5115330;28;20297;-70
2021/11/17 08:45:43;;;;;;;6.88;1.52;;;10.20;99.90;;;;;;5113947;28;20617;-70
2021/11/17 08:48:11;;;;;;;9.45;1.75;;;10.20;99.90;;;;;;5111060;28;20241;-70
2021/11/17 08:50:39;;;;;;;9.85;2.67;;;10.20;99.90;;;;;;5111375;28;20035;-70
2021/11/17 08:53:07;;;;;;;8.10;1.65;;;10.20;99.90;;;;;;5109272;28;20020;-70
2021/11/17 08:55:35;;;;;;;5.28;1.88;;;10.20;99.90;;;;;;5110563;28;20032;-70
2021/11/17 08:58:01;;;;;;;11.55;1.70;;;10.30;99.90;;;;;;5111149;28;20262;-70
2021/11/17 09:00:28;;;;;;;9.95;2.40;;;10.30;99.90;;;;;;5109601;28;20225;-70
2021/11/17 09:02:56;;;;;;;13.80;2.85;;;10.30;99.90;;;;;;5111496;28;20269;-70
2021/11/17 09:05:27;;;;;;;13.05;2.88;;;10.20;99.90;;;;;;5110991;28;20034;-70
2021/11/17 09:07:54;;;;;;;19.30;3.13;;;10.20;99.90;;;;;;5093780;28;20121;-70
2021/11/17 09:10:24;;;;;;;19.92;3.10;;;10.20;99.90;;;;;;5111695;28;20047;-70
2021/11/17 09:12:51;;;;;;;12.43;2.83;;;10.10;99.90;;;;;;5113086;28;20035;-70
2021/11/17 09:15:19;;;;;;;21.95;4.70;;;10.10;99.90;;;;;;5112719;28;20035;-70
2021/11/17 09:17:46;;;;;;;14.35;3.20;;;10.10;99.90;;;;;;5113095;28;20329;-70
2021/11/17 09:20:15;;;;;;;13.35;2.53;;;10.10;99.90;;;;;;5112307;28;20035;-70
2021/11/17 09:22:41;;;;;;;15.77;3.15;;;10.00;99.90;;;;;;5112586;28;20108;-70
2021/11/17 09:25:09;;;;;;;18.15;3.90;;;10.00;99.90;;;;;;5112261;28;20041;-70
2021/11/17 09:27:37;;;;;;;18.98;3.05;;;10.00;99.90;;;;;;5093354;28;20055;-70
2021/11/17 09:30:06;;;;;;;19.77;3.13;;;10.00;99.90;;;;;;5109473;28;20242;-70
2021/11/17 09:32:32;;;;;;;12.90;3.00;;;10.00;99.90;;;;;;5111599;28;20349;-70
2021/11/17 09:35:10;;;;;;;20.75;3.03;;;9.90;99.90;;;;;;5111663;27;20054;-70
2021/11/17 09:37:37;;;;;;;17.45;3.90;;;9.90;99.90;;;;;;5113072;28;20031;-70
2021/11/17 09:40:06;;;;;;;15.88;3.33;;;9.90;99.90;;;;;;5108487;28;20020;-70
2021/11/17 09:42:32;;;;;;;27.45;3.88;;;9.90;99.90;;;;;;5095895;28;20214;-70
2021/11/17 09:44:59;;;;;;;15.35;2.53;;;9.90;99.90;;;;;;5091070;28;20035;-70
2021/11/17 09:47:30;;;;;;;21.75;3.45;;;9.90;99.90;;;;;;5091874;28;20350;-70
2021/11/17 09:50:19;;;;;;;12.18;2.47;;;9.90;99.90;;;;;;5110952;28;20402;-70
2021/11/17 09:52:50;;;;;;;16.48;3.17;;;9.90;99.90;;;;;;5113765;28;20016;-70
2021/11/17 09:55:28;;;;;;;16.27;2.53;;;9.90;99.90;;;;;;5111024;28;20027;-70
2021/11/17 09:58:19;;;;;;;14.27;2.58;;;9.90;99.90;;;;;;5112223;28;20024;-70
2021/11/17 10:01:04;;;;;;;16.15;2.85;;;10.00;99.90;;;;;;5110741;28;20024;-70
2021/11/17 10:03:48;;;;;;;17.98;3.42;;;10.10;99.90;;;;;;5112835;28;20043;-70
2021/11/17 10:15:13;;;;;;;18.20;3.95;;;10.40;99.90;;;;;;5111923;28;20203;-70
2021/11/17 10:17:49;;;;;;;11.77;3.70;;;10.40;99.90;;;;;;5111134;28;20031;-70
2021/11/17 10:20:23;;;;;;;18.73;4.13;;;10.40;99.90;;;;;;5111240;28;20092;-70
2021/11/17 10:23:08;;;;;;;15.23;3.38;;;10.40;99.90;;;;;;5113046;28;20345;-70
2021/11/17 10:26:04;;;;;;;11.75;2.53;;;10.50;99.90;;;;;;5076954;28;20031;-70
2021/11/17 10:28:53;;;;;;;16.05;3.65;;;10.50;99.90;;;;;;5110866;28;20024;-70
2021/11/17 10:31:21;;;;;;;49.92;20.63;;;10.40;99.90;;;;;;5104917;28;20333;-70
2021/11/17 10:34:16;;;;;;;35.20;17.15;;;10.40;99.90;;;;;;5113059;28;20054;-70
2021/11/17 10:36:56;;;;;;;17.35;6.38;;;10.40;99.90;;;;;;5110681;28;20110;-70
2021/11/17 10:39:27;;;;;;;23.88;7.45;;;10.40;99.90;;;;;;5109314;28;20035;-70
2021/11/17 10:41:56;;;;;;;29.40;10.70;;;10.30;99.90;;;;;;5109479;28;20039;-70
2021/11/17 10:44:45;;;;;;;14.40;5.65;;;10.30;99.90;;;;;;5112289;28;20020;-70
2021/11/17 10:47:29;;;;;;;18.98;3.17;;;10.40;99.90;;;;;;5110107;28;20261;-70
2021/11/17 10:49:54;;;;;;;15.27;3.00;;;10.30;99.90;;;;;;5110003;28;20475;-70
2021/11/17 10:52:40;;;;;;;18.52;3.33;;;10.20;99.90;;;;;;5111112;28;20023;-70
2021/11/17 10:55:17;;;;;;;19.27;3.88;;;10.20;99.90;;;;;;5107682;28;20310;-70
2021/11/17 10:57:43;;;;;;;18.80;3.38;;;10.20;99.90;;;;;;5109225;28;20031;-70
2021/11/17 11:00:11;;;;;;;16.13;2.95;;;10.20;99.90;;;;;;5107452;28;20120;-70
2021/11/17 11:02:40;;;;;;;19.20;4.72;;;10.20;99.90;;;;;;5106569;28;20031;-70
2021/11/17 11:05:15;;;;;;;16.42;3.35;;;10.30;99.90;;;;;;5110175;28;20096;-70
2021/11/17 11:08:19;;;;;;;13.88;2.95;;;10.40;99.90;;;;;;5111063;28;20023;-70
2021/11/17 11:10:52;;;;;;;15.38;3.78;;;10.40;99.90;;;;;;5045555;28;20044;-70
2021/11/17 11:13:31;;;;;;;13.23;3.03;;;10.40;99.90;;;;;;5100817;28;20039;-70
2021/11/17 11:16:01;;;;;;;12.55;2.33;;;10.80;99.90;;;;;;5107562;28;20027;-70
2021/11/17 11:18:42;;;;;;;;;;;11.50;99.90;;;;;;5110436;28;20027;-70
2021/11/17 11:21:10;;;;;;;14.40;2.90;;;12.50;99.90;;;;;;5110577;28;19919;-70
2021/11/17 11:23:37;;;;;;;12.75;3.00;;;12.70;99.90;;;;;;5111976;28;20155;-70
2021/11/17 11:26:17;;;;;;;13.40;2.83;;;12.40;99.90;;;;;;5086128;28;20023;-70
2021/11/17 11:28:46;;;;;;;14.25;3.78;;;12.00;99.90;;;;;;5112168;28;20038;-70
2021/11/17 11:31:12;;;;;;;10.05;2.90;;;12.00;99.90;;;;;;5110468;28;20037;-70
2021/11/17 11:33:39;;;;;;;9.50;2.72;;;13.40;99.90;;;;;;5111195;28;20035;-70
2021/11/17 11:36:11;;;;;;;12.77;2.90;;;14.90;99.90;;;;;;5106083;28;20391;-70
2021/11/17 11:38:41;;;;;;;9.43;2.38;;;15.80;99.90;;;;;;5108707;28;20039;-70
2021/11/17 11:41:25;;;;;;;8.07;2.00;;;15.50;99.90;;;;;;5108887;28;20028;-70
2021/11/17 11:47:09;;;;;;;11.32;2.83;;;16.50;99.90;;;;;;5105989;28;20024;-70
2021/11/17 11:49:50;;;;;;;16.63;2.80;;;16.10;99.90;;;;;;5094004;28;20119;-70
2021/11/17 11:52:22;;;;;;;10.70;3.00;;;14.90;99.90;;;;;;5109044;28;20094;-70
2021/11/17 11:54:51;;;;;;;13.43;3.20;;;14.10;99.90;;;;;;5088713;28;20229;-70
2021/11/17 11:57:25;;;;;;;14.03;2.70;;;13.70;99.90;;;;;;5115009;28;20030;-70
2021/11/17 12:00:08;;;;;;;12.52;2.65;;;14.50;99.90;;;;;;5097719;28;20064;-70
2021/11/17 12:02:39;;;;;;;14.18;2.63;;;14.70;99.90;;;;;;5113817;28;20028;-70
2021/11/17 12:05:10;;;;;;;12.35;3.05;;;14.50;99.90;;;;;;5113709;27;20053;-70
2021/11/17 12:07:45;;;;;;;13.85;2.38;;;14.00;99.90;;;;;;5115862;28;20269;-70
2021/11/17 12:10:37;;;;;;;14.32;3.10;;;13.40;99.90;;;;;;5115887;28;20063;-70
2021/11/17 12:13:21;;;;;;;9.65;1.77;;;13.00;99.90;;;;;;5090864;28;20034;-71
2021/11/17 12:16:07;;;;;;;12.05;2.58;;;12.40;99.90;;;;;;5116583;27;20023;-71
2021/11/17 12:19:00;;;;;;;11.23;2.15;;;12.00;99.90;;;;;;5113111;28;20360;-70
2021/11/17 12:22:09;;;;;;;8.40;2.33;;;11.80;99.90;;;;;;5111058;28;20353;-70
2021/11/17 12:24:39;;;;;;;6.50;1.65;;;11.90;99.90;;;;;;5114054;28;20341;-71
2021/11/17 12:27:15;;;;;;;;;;;12.00;99.90;;;;;;5097411;28;20030;-71
2021/11/17 12:29:46;;;;;;;11.50;2.58;;;12.40;99.90;;;;;;5116731;28;20654;-70
2021/11/17 12:32:32;;;;;;;7.72;2.00;;;13.50;99.90;;;;;;5115358;28;20032;-71
2021/11/17 12:35:23;;;;;;;11.95;2.05;;;14.90;99.90;;;;;;5115109;27;20035;-70
2021/11/17 12:37:59;;;;;;;13.85;2.55;;;16.10;99.90;;;;;;5117966;28;20027;-70
2021/11/17 12:40:57;;;;;;;8.40;2.35;;;17.40;99.90;;;;;;5115495;28;20239;-70
2021/11/17 12:43:28;;;;;;;9.30;2.05;;;18.40;99.90;;;;;;5104086;28;20414;-70
2021/11/17 12:46:15;;;;;;;9.68;2.30;;;18.80;99.90;;;;;;5116472;28;20139;-70
2021/11/17 12:48:47;;;;;;;10.35;1.95;;;19.20;99.90;;;;;;5114445;28;20023;-70
2021/11/17 12:51:18;;;;;;;10.18;2.45;;;19.50;99.90;;;;;;5112621;28;20087;-70
2021/11/17 12:54:09;;;;;;;11.43;2.33;;;19.40;99.90;;;;;;5117081;28;20030;-70
2021/11/17 12:56:50;;;;;;;8.85;1.92;;;18.70;99.90;;;;;;5116415;28;20027;-70
2021/11/17 12:59:32;;;;;;;7.07;1.85;;;18.10;99.90;;;;;;5115946;28;20495;-70
2021/11/17 13:02:02;;;;;;;7.63;1.52;;;17.80;99.90;;;;;;5092263;28;20341;-70
2021/11/17 13:04:41;;;;;;;9.38;1.50;;;17.60;99.90;;;;;;5113267;28;20035;-70
2021/11/17 13:07:12;;;;;;;8.03;1.50;;;17.70;99.90;;;;;;5111639;28;20035;-70
2021/11/17 13:09:45;;;;;;;6.97;1.50;;;17.70;99.90;;;;;;5109644;28;21060;-70
2021/11/17 13:12:19;;;;;;;8.18;2.17;;;17.60;99.90;;;;;;5111405;28;20254;-70
2021/11/17 13:14:44;;;;;;;6.13;1.85;;;17.30;99.90;;;;;;5112900;28;20031;-70
2021/11/17 13:17:23;;;;;;;6.25;1.95;;;17.00;99.90;;;;;;5112657;28;20407;-70
2021/11/17 13:19:54;;;;;;;11.30;2.05;;;16.30;99.90;;;;;;5112001;28;20348;-71
2021/11/17 13:22:36;;;;;;;9.15;1.88;;;15.30;99.90;;;;;;5112730;28;20322;-71
2021/11/17 13:25:28;;;;;;;9.95;2.20;;;14.40;99.90;;;;;;5107818;28;20015;-71
2021/11/17 13:28:06;;;;;;;7.90;1.98;;;13.60;99.90;;;;;;5111568;28;20023;-71
2021/11/17 13:30:38;;;;;;;12.18;2.38;;;13.00;99.90;;;;;;5093084;28;20047;-71
2021/11/17 13:33:36;;;;;;;10.43;1.95;;;13.00;99.90;;;;;;5112874;28;20354;-71
2021/11/17 13:36:07;;;;;;;9.70;2.20;;;12.50;99.90;;;;;;5052396;28;20357;-71
2021/11/17 13:38:37;;;;;;;13.18;2.15;;;12.10;99.90;;;;;;5114037;28;20027;-71
2021/11/17 13:41:06;;;;;;;9.50;2.50;;;11.80;99.90;;;;;;5109989;28;20038;-71
2021/11/17 13:43:34;;;;;;;11.53;2.20;;;11.70;99.90;;;;;;5110664;28;20207;-71
2021/11/17 13:46:06;;;;;;;13.02;3.03;;;11.90;99.90;;;;;;5094721;28;20456;-71
2021/11/17 13:48:36;;;;;;;12.25;2.15;;;12.00;99.90;;;;;;5112241;28;20047;-71
2021/11/17 13:51:02;;;;;;;10.90;2.17;;;11.90;99.90;;;;;;5111513;28;20024;-71
2021/11/17 13:53:28;;;;;;;9.07;2.58;;;11.80;99.90;;;;;;5113311;28;20068;-71
2021/11/17 13:56:06;;;;;;;11.52;2.22;;;11.70;99.90;;;;;;5107262;28;20258;-71
2021/11/17 13:58:34;;;;;;;11.68;2.70;;;11.50;99.90;;;;;;5094809;28;20095;-70
2021/11/17 14:01:01;;;;;;;15.55;2.22;;;11.40;99.90;;;;;;5110234;28;20024;-70
2021/11/17 14:03:27;;;;;;;11.10;1.90;;;11.10;99.90;;;;;;5113909;28;20040;-70
2021/11/17 14:05:53;;;;;;;9.85;1.90;;;10.90;99.90;;;;;;5114617;28;20291;-70
2021/11/17 14:08:20;;;;;;;12.55;2.30;;;10.60;99.90;;;;;;5111432;28;20058;-70
2021/11/17 14:10:46;;;;;;;13.50;1.92;;;10.40;99.90;;;;;;5110826;28;20263;-70
2021/11/17 14:13:13;;;;;;;13.90;2.80;;;10.30;99.90;;;;;;5111650;28;20040;-70
2021/11/17 14:15:40;;;;;;;8.45;1.90;;;10.20;99.90;;;;;;5113633;28;20031;-70
2021/11/17 14:18:11;;;;;;;18.33;2.33;;;10.00;99.90;;;;;;5078627;28;20074;-70
2021/11/17 14:20:38;;;;;;;15.43;1.95;;;9.90;99.90;;;;;;5093599;28;20064;-70
2021/11/17 14:23:10;;;;;;;10.15;1.58;;;9.80;99.90;;;;;;5111115;28;20329;-70
2021/11/17 14:25:36;;;;;;;12.65;2.20;;;9.80;99.90;;;;;;5110860;28;20108;-70
2021/11/17 14:28:07;;;;;;;10.52;2.75;;;9.80;99.90;;;;;;5093071;28;20307;-70
2021/11/17 14:30:43;;;;;;;10.93;1.98;;;9.70;99.90;;;;;;5110866;28;20074;-70
2021/11/17 14:33:15;;;;;;;12.88;1.88;;;9.70;99.90;;;;;;5067958;28;20293;-70
2021/11/17 14:35:41;;;;;;;11.93;2.00;;;9.80;99.90;;;;;;5104078;28;20047;-70
2021/11/17 14:38:14;;;;;;;16.60;3.25;;;9.80;99.90;;;;;;5092565;28;20116;-70
2021/11/17 14:40:40;;;;;;;13.85;2.58;;;9.80;99.90;;;;;;5100289;28;20298;-69
2021/11/17 14:43:06;;;;;;;13.60;2.53;;;9.70;99.90;;;;;;5101550;27;20039;-68
2021/11/17 14:45:32;;;;;;;20.52;2.70;;;9.60;99.90;;;;;;5090029;28;20028;-68
2021/11/17 14:47:59;;;;;;;8.77;2.28;;;9.50;99.90;;;;;;5104398;28;20024;-68
2021/11/17 14:50:25;;;;;;;12.27;2.17;;;9.50;99.90;;;;;;5107071;28;20051;-68
2021/11/17 14:52:52;;;;;;;15.15;2.22;;;9.40;99.90;;;;;;5107799;28;20034;-68
2021/11/17 14:55:24;;;;;;;16.02;2.20;;;9.40;99.90;;;;;;5088715;28;20260;-68
2021/11/17 14:57:53;;;;;;;9.82;2.10;;;9.30;99.90;;;;;;5083461;28;20024;-68
2021/11/17 15:00:43;;;;;;;16.10;2.10;;;9.30;99.90;;;;;;5108122;28;20367;-68
2021/11/17 15:03:09;;;;;;;21.35;3.20;;;9.20;99.90;;;;;;5102944;28;20051;-68
2021/11/17 15:05:36;;;;;;;14.15;2.08;;;9.10;99.90;;;;;;5101231;28;20028;-67
2021/11/17 15:08:04;;;;;;;10.75;1.98;;;9.00;99.90;;;;;;5101400;28;22558;-67
2021/11/17 15:10:30;;;;;;;13.65;2.00;;;9.00;99.90;;;;;;5103202;28;20444;-67
2021/11/17 15:12:57;;;;;;;13.38;2.30;;;8.90;99.90;;;;;;5098555;28;20027;-68
2021/11/17 15:15:29;;;;;;;13.63;2.08;;;8.80;99.90;;;;;;5103309;28;20334;-68
2021/11/17 15:17:56;;;;;;;20.92;2.65;;;8.70;99.90;;;;;;5086436;28;20024;-68
2021/11/17 15:20:23;;;;;;;14.40;2.22;;;8.70;99.90;;;;;;5100595;28;20028;-67
2021/11/17 15:22:49;;;;;;;10.13;2.60;;;8.60;99.90;;;;;;5109027;28;20027;-68
2021/11/17 15:25:22;;;;;;;14.35;2.00;;;8.60;99.90;;;;;;5107406;28;20384;-67
2021/11/17 15:27:57;;;;;;;5.88;1.83;;;8.60;99.90;;;;;;5107664;28;20030;-67
2021/11/17 15:30:27;;;;;;;10.50;1.77;;;8.60;99.90;;;;;;5090589;28;20077;-68
2021/11/17 15:32:55;;;;;;;9.05;2.63;;;8.60;99.90;;;;;;5106944;28;20035;-68
2021/11/17 15:35:23;;;;;;;10.05;2.08;;;8.60;99.90;;;;;;5086198;28;20341;-67
2021/11/17 15:37:50;;;;;;;8.23;2.08;;;8.60;99.90;;;;;;5107810;28;20313;-67
2021/11/17 15:40:21;;;;;;;10.20;1.95;;;8.60;99.90;;;;;;5107366;28;20106;-68
2021/11/17 15:42:49;;;;;;;16.38;2.53;;;8.60;99.90;;;;;;5104020;28;20020;-68
2021/11/17 15:45:17;;;;;;;13.50;2.83;;;8.60;99.90;;;;;;5086510;28;20047;-68
2021/11/17 15:47:43;;;;;;;15.57;2.70;;;8.60;99.90;;;;;;5108544;28;20076;-67
2021/11/17 15:50:13;;;;;;;11.35;1.95;;;8.60;99.90;;;;;;5106379;28;20099;-66
2021/11/17 15:52:40;;;;;;;15.73;2.60;;;8.60;99.90;;;;;;5103113;28;20389;-67
2021/11/17 15:55:07;;;;;;;10.98;2.17;;;8.50;99.90;;;;;;5102794;28;20241;-67
2021/11/17 15:57:33;;;;;;;11.77;3.17;;;8.60;99.90;;;;;;5099786;28;20027;-67